createdAt,value
2019-02-19T00:01:48.493Z,10.53
2019-02-19T00:04:51.073Z,10.03
2019-02-19T00:07:55.763Z,9.77
2019-02-19T00:10:58.208Z,10.23
2019-02-19T00:14:01.986Z,10.13
2019-02-19T00:17:06.422Z,10.30
2019-02-19T00:20:14.638Z,10.17
2019-02-19T00:23:17.214Z,10.80
2019-02-19T00:26:19.819Z,10.13
2019-02-19T00:29:22.497Z,10.13
2019-02-19T00:32:25.123Z,10.67
2019-02-19T00:35:27.809Z,10.80
2019-02-19T00:38:30.521Z,10.43
2019-02-19T00:41:34.053Z,10.23
2019-02-19T00:44:36.710Z,10.20
2019-02-19T00:47:39.442Z,10.10
2019-02-19T00:50:42.018Z,10.43
2019-02-19T00:53:44.733Z,10.17
2019-02-19T00:56:47.286Z,10.17
2019-02-19T00:59:49.881Z,10.10
2019-02-19T01:02:52.480Z,10.40
2019-02-19T01:05:55.207Z,10.40
2019-02-19T01:08:59.056Z,9.53
2019-02-19T01:12:01.671Z,10.17
2019-02-19T01:15:05.874Z,10.00
2019-02-19T01:18:08.433Z,10.43
2019-02-19T01:21:11.069Z,10.63
2019-02-19T01:24:13.683Z,10.80
2019-02-19T01:27:16.417Z,10.70
2019-02-19T01:30:18.998Z,11.53
2019-02-19T01:33:21.545Z,9.80
2019-02-19T01:36:24.146Z,11.00
2019-02-19T01:39:26.731Z,10.63
2019-02-19T01:42:29.393Z,10.37
2019-02-19T01:45:34.061Z,10.73
2019-02-19T01:48:36.641Z,11.47
2019-02-19T01:51:39.306Z,10.30
2019-02-19T01:54:42.066Z,10.27
2019-02-19T01:57:44.643Z,10.90
2019-02-19T02:00:47.268Z,10.47
2019-02-19T02:03:50.053Z,11.17
2019-02-19T02:06:52.593Z,11.67
2019-02-19T02:09:55.206Z,10.93
2019-02-19T02:12:57.821Z,10.90
2019-02-19T02:16:00.595Z,10.57
2019-02-19T02:19:03.312Z,11.10
2019-02-19T02:22:06.010Z,10.50
2019-02-19T02:25:08.672Z,10.80
2019-02-19T02:28:11.259Z,10.80
2019-02-19T02:31:13.833Z,10.97
2019-02-19T02:34:17.497Z,10.97
2019-02-19T02:37:20.154Z,10.77
2019-02-19T02:40:22.754Z,10.93
2019-02-19T02:43:25.341Z,11.77
2019-02-19T02:46:27.907Z,11.30
2019-02-19T02:49:30.472Z,10.50
2019-02-19T02:52:33.146Z,11.50
2019-02-19T02:55:35.805Z,11.33
2019-02-19T02:58:38.481Z,11.50
2019-02-19T03:01:41.077Z,11.63
2019-02-19T03:04:43.722Z,11.33
2019-02-19T03:07:49.439Z,12.03
2019-02-19T03:10:52.141Z,11.87
2019-02-19T03:13:54.776Z,12.93
2019-02-19T03:16:57.413Z,11.63
2019-02-19T03:20:00.080Z,11.90
2019-02-19T03:23:02.647Z,12.20
2019-02-19T03:26:05.303Z,11.63
2019-02-19T03:29:08.047Z,13.03
2019-02-19T03:32:10.711Z,12.60
2019-02-19T03:35:13.337Z,13.27
2019-02-19T03:38:15.943Z,12.87
2019-02-19T03:41:18.572Z,13.13
2019-02-19T03:44:21.283Z,13.60
2019-02-19T03:47:23.958Z,13.50
2019-02-19T03:50:26.707Z,13.40
2019-02-19T03:53:29.299Z,14.00
2019-02-19T03:56:31.898Z,14.30
2019-02-19T03:59:34.550Z,14.63
2019-02-19T04:02:37.192Z,14.73
2019-02-19T04:05:39.837Z,15.13
2019-02-19T04:08:42.521Z,15.33
2019-02-19T04:11:45.196Z,15.50
2019-02-19T04:14:47.866Z,15.20
2019-02-19T04:17:50.428Z,16.23
2019-02-19T04:20:53.040Z,15.87
2019-02-19T04:23:55.679Z,14.83
2019-02-19T04:26:58.271Z,16.90
2019-02-19T04:30:00.910Z,16.47
2019-02-19T04:33:03.593Z,16.67
2019-02-19T04:36:06.212Z,16.43
2019-02-19T04:39:08.787Z,17.90
2019-02-19T04:42:11.536Z,17.67
2019-02-19T04:45:14.112Z,18.20
2019-02-19T04:48:16.897Z,17.57
2019-02-19T04:51:19.609Z,17.67
2019-02-19T04:54:22.286Z,17.90
2019-02-19T04:57:24.989Z,19.73
2019-02-19T05:00:27.633Z,18.50
2019-02-19T05:03:30.287Z,20.50
2019-02-19T05:06:32.859Z,19.83
2019-02-19T05:09:35.687Z,19.60
2019-02-19T05:12:38.383Z,20.80
2019-02-19T05:15:41.118Z,20.90
2019-02-19T05:18:43.882Z,21.40
2019-02-19T05:21:46.495Z,21.83
2019-02-19T05:24:49.000Z,20.90
2019-02-19T05:27:51.555Z,22.03
2019-02-19T05:30:54.186Z,22.37
2019-02-19T05:33:56.852Z,21.40
2019-02-19T05:37:00.256Z,22.80
2019-02-19T05:40:03.658Z,22.70
2019-02-19T05:43:06.260Z,22.70
2019-02-19T05:46:08.925Z,23.17
2019-02-19T05:49:11.609Z,23.17
2019-02-19T05:52:14.251Z,24.47
2019-02-19T05:55:16.905Z,23.07
2019-02-19T05:58:19.501Z,23.13
2019-02-19T06:01:22.211Z,23.70
2019-02-19T06:04:24.832Z,22.13
2019-02-19T06:07:27.596Z,22.40
2019-02-19T06:10:30.270Z,22.07
2019-02-19T06:13:32.982Z,22.07
2019-02-19T06:16:35.641Z,22.13
2019-02-19T06:19:38.349Z,23.10
2019-02-19T06:22:40.959Z,22.57
2019-02-19T06:25:43.671Z,23.57
2019-02-19T06:28:46.335Z,20.93
2019-02-19T06:31:49.003Z,22.07
2019-02-19T06:34:51.574Z,21.93
2019-02-19T06:37:54.270Z,21.07
2019-02-19T06:40:56.927Z,21.17
2019-02-19T06:43:59.650Z,21.10
2019-02-19T06:47:06.972Z,21.70
2019-02-19T06:50:06.870Z,21.50
2019-02-19T06:53:09.429Z,22.10
2019-02-19T06:56:12.117Z,21.27
2019-02-19T06:59:14.731Z,22.07
2019-02-19T07:02:27.067Z,21.13
2019-02-19T07:05:29.715Z,20.27
2019-02-19T07:08:32.403Z,21.63
2019-02-19T07:11:35.156Z,24.00
2019-02-19T07:14:37.747Z,21.10
2019-02-19T07:17:40.470Z,21.70
2019-02-19T07:20:43.181Z,21.50
2019-02-19T07:23:46.050Z,21.70
2019-02-19T07:26:48.695Z,21.07
2019-02-19T07:29:51.400Z,19.73
2019-02-19T07:32:54.075Z,22.00
2019-02-19T07:35:56.712Z,20.60
2019-02-19T07:38:59.234Z,22.83
2019-02-19T07:42:01.954Z,21.10
2019-02-19T07:45:04.754Z,21.73
2019-02-19T07:48:07.351Z,21.13
2019-02-19T07:51:10.014Z,20.67
2019-02-19T07:54:12.690Z,21.00
2019-02-19T07:57:15.285Z,21.13
2019-02-19T08:00:17.931Z,21.70
2019-02-19T08:03:20.690Z,20.87
2019-02-19T08:06:23.325Z,18.70
2019-02-19T08:09:26.779Z,19.93
2019-02-19T08:12:29.483Z,19.50
2019-02-19T08:15:32.257Z,20.50
2019-02-19T08:18:34.957Z,19.10
2019-02-19T08:21:37.515Z,19.77
2019-02-19T08:24:40.310Z,20.40
2019-02-19T08:27:42.894Z,18.87
2019-02-19T08:30:46.504Z,18.80
2019-02-19T08:33:49.208Z,19.77
2019-02-19T08:36:51.886Z,20.20
2019-02-19T08:39:54.512Z,20.90
2019-02-19T08:42:57.184Z,19.53
2019-02-19T08:45:59.964Z,20.80
2019-02-19T08:49:02.617Z,20.13
2019-02-19T08:52:05.231Z,20.20
2019-02-19T08:55:07.871Z,20.07
2019-02-19T08:58:11.600Z,19.87
2019-02-19T09:01:14.194Z,18.37
2019-02-19T09:04:16.953Z,21.47
2019-02-19T09:07:19.644Z,20.07
2019-02-19T09:10:22.359Z,19.20
2019-02-19T09:13:25.166Z,19.33
2019-02-19T09:16:27.776Z,19.50
2019-02-19T09:19:31.263Z,18.87
2019-02-19T09:22:33.964Z,19.00
2019-02-19T09:25:36.625Z,18.80
2019-02-19T09:28:39.318Z,19.53
2019-02-19T09:31:41.938Z,20.60
2019-02-19T09:34:44.624Z,19.07
2019-02-19T09:37:47.216Z,18.97
2019-02-19T09:40:49.871Z,18.70
2019-02-19T09:43:53.744Z,18.43
2019-02-19T09:46:56.454Z,17.70
2019-02-19T09:49:59.111Z,17.60
2019-02-19T09:53:01.747Z,17.50
2019-02-19T09:56:04.345Z,18.20
2019-02-19T09:59:06.915Z,19.53
2019-02-19T10:02:09.496Z,18.03
2019-02-19T10:05:12.954Z,17.40
2019-02-19T10:08:15.628Z,17.70
2019-02-19T10:11:18.406Z,16.43
2019-02-19T10:14:21.035Z,16.40
2019-02-19T10:17:23.638Z,15.20
2019-02-19T10:20:26.374Z,14.77
2019-02-19T10:23:28.943Z,14.47
2019-02-19T10:26:31.598Z,14.63
2019-02-19T10:29:35.085Z,14.20
2019-02-19T10:32:38.651Z,14.73
2019-02-19T10:35:41.314Z,13.33
2019-02-19T10:38:43.996Z,14.00
2019-02-19T10:41:46.763Z,13.37
2019-02-19T10:44:49.567Z,13.10
2019-02-19T10:47:52.235Z,11.90
2019-02-19T10:50:54.943Z,12.33
2019-02-19T10:53:58.676Z,11.17
2019-02-19T10:57:01.349Z,11.03
2019-02-19T11:00:06.984Z,10.87
2019-02-19T11:03:09.598Z,10.77
2019-02-19T11:06:12.247Z,11.13
2019-02-19T11:09:14.908Z,11.50
2019-02-19T11:12:17.614Z,10.90
2019-02-19T11:15:20.308Z,11.40
2019-02-19T11:18:28.451Z,10.53
2019-02-19T11:21:27.632Z,10.33
2019-02-19T11:24:30.299Z,11.03
2019-02-19T11:27:32.894Z,10.13
2019-02-19T11:30:35.563Z,10.37
2019-02-19T11:33:38.172Z,10.07
2019-02-19T11:36:40.796Z,10.67
2019-02-19T11:39:43.735Z,10.43
2019-02-19T11:42:46.357Z,10.20
2019-02-19T11:45:48.978Z,9.97
2019-02-19T11:48:51.649Z,10.03
2019-02-19T11:51:54.228Z,9.93
2019-02-19T11:54:56.804Z,9.57
2019-02-19T11:57:59.421Z,10.87
2019-02-19T12:01:02.135Z,9.03
2019-02-19T12:04:04.838Z,9.90
2019-02-19T12:07:07.514Z,9.23
2019-02-19T12:10:11.914Z,9.80
2019-02-19T12:13:14.778Z,9.30
2019-02-19T12:16:17.474Z,8.80
2019-02-19T12:19:20.154Z,8.83
2019-02-19T12:22:22.841Z,9.10
2019-02-19T12:25:25.392Z,9.17
2019-02-19T12:28:28.099Z,8.23
2019-02-19T12:31:30.813Z,8.43
2019-02-19T12:34:33.379Z,8.57
2019-02-19T12:37:36.132Z,8.10
2019-02-19T12:40:38.818Z,7.30
2019-02-19T12:43:41.619Z,8.00
2019-02-19T12:59:56.559Z,7.00
2019-02-19T13:02:55.905Z,8.70
2019-02-19T13:05:58.459Z,8.67
2019-02-19T13:09:01.103Z,8.80
2019-02-19T13:12:03.827Z,8.80
2019-02-19T13:15:09.503Z,10.70
2019-02-19T13:18:12.092Z,8.20
2019-02-19T13:21:14.678Z,7.57
2019-02-19T13:24:17.232Z,8.43
2019-02-19T13:27:19.942Z,8.23
2019-02-19T13:30:22.633Z,7.60
2019-02-19T13:37:47.317Z,8.10
2019-02-19T13:40:49.902Z,8.50
2019-02-19T13:43:52.606Z,7.93
2019-02-19T13:46:55.268Z,7.60
2019-02-19T13:49:57.877Z,7.90
2019-02-19T13:53:09.039Z,6.53
2019-02-19T13:56:14.849Z,7.53
2019-02-19T13:59:17.596Z,8.33
2019-02-19T14:02:20.130Z,7.57
2019-02-19T14:05:22.732Z,7.00
2019-02-19T14:08:25.409Z,8.13
2019-02-19T14:11:27.988Z,7.70
2019-02-19T14:14:53.248Z,8.23
2019-02-19T14:17:55.787Z,6.90
2019-02-19T14:21:09.947Z,7.20
2019-02-19T14:24:30.999Z,8.33
2019-02-19T14:28:00.400Z,7.40
2019-02-19T14:31:21.419Z,6.50
2019-02-19T14:34:49.064Z,7.27
2019-02-19T14:38:17.470Z,6.60
2019-02-19T14:41:50.666Z,7.20
2019-02-19T14:45:06.617Z,7.60
2019-02-19T14:48:27.476Z,7.20
2019-02-19T14:51:55.627Z,7.17
2019-02-19T14:55:16.548Z,6.47
2019-02-19T14:58:51.842Z,5.93
2019-02-19T15:02:12.081Z,6.67
2019-02-19T15:05:37.306Z,6.77
2019-02-19T15:09:17.734Z,7.10
2019-02-19T15:12:39.658Z,7.37
2019-02-19T15:15:55.848Z,7.07
2019-02-19T15:19:19.881Z,7.00
2019-02-19T15:22:46.838Z,6.20
2019-02-19T15:29:38.952Z,6.33
2019-02-19T15:33:11.979Z,7.20
2019-02-19T15:36:34.072Z,12.07
2019-02-19T15:39:56.138Z,7.90
2019-02-19T15:43:17.383Z,6.70
2019-02-19T15:46:30.123Z,7.00
2019-02-19T15:49:55.327Z,7.77
2019-02-19T15:53:24.278Z,7.50
2019-02-19T15:56:52.514Z,7.77
2019-02-19T16:00:16.006Z,7.63
2019-02-19T16:03:31.825Z,7.30
2019-02-19T16:07:00.201Z,7.53
2019-02-19T16:10:14.257Z,7.57
2019-02-19T16:13:24.730Z,7.30
2019-02-19T16:16:37.673Z,7.73
2019-02-19T16:19:56.960Z,7.53
2019-02-19T16:23:23.813Z,7.47
2019-02-19T16:26:49.096Z,7.97
2019-02-19T16:30:01.233Z,8.13
2019-02-19T16:33:20.579Z,8.57
2019-02-19T16:36:33.832Z,8.90
2019-02-19T16:39:56.122Z,8.20
2019-02-19T16:43:09.772Z,10.87
2019-02-19T16:46:39.578Z,8.73
2019-02-19T16:50:10.693Z,8.57
2019-02-19T16:53:20.885Z,9.13
2019-02-19T16:56:58.375Z,9.50
2019-02-19T17:00:14.445Z,7.30
2019-02-19T17:03:26.153Z,8.90
2019-02-19T17:06:41.996Z,8.40
2019-02-19T17:09:49.265Z,6.80
2019-02-19T17:12:58.859Z,8.80
2019-02-19T17:16:19.751Z,8.83
2019-02-19T17:19:36.018Z,8.20
2019-02-19T17:22:47.650Z,7.77
2019-02-19T17:26:01.167Z,6.80
2019-02-19T17:29:28.397Z,7.50
2019-02-19T17:32:49.400Z,6.97
2019-02-19T17:36:10.263Z,6.70
2019-02-19T17:39:31.180Z,7.23
2019-02-19T17:42:53.430Z,7.13
2019-02-19T17:46:00.990Z,6.13
2019-02-19T17:49:18.140Z,8.10
2019-02-19T17:52:46.481Z,6.63
2019-02-19T17:56:11.656Z,8.00
2019-02-19T17:59:42.735Z,6.73
2019-02-19T18:03:03.721Z,6.10
2019-02-19T18:06:34.765Z,6.93
2019-02-19T18:09:55.834Z,8.23
2019-02-19T18:13:11.697Z,5.77
2019-02-19T18:16:31.815Z,6.00
2019-02-19T18:19:34.380Z,5.70
2019-02-19T18:22:36.950Z,7.77
2019-02-19T18:25:39.662Z,7.17
2019-02-19T18:28:42.341Z,6.93
2019-02-19T18:31:45.017Z,7.77
2019-02-19T18:34:47.722Z,8.07
2019-02-19T18:37:50.398Z,8.70
2019-02-19T18:40:53.092Z,8.50
2019-02-19T18:43:56.929Z,8.40
2019-02-19T18:46:59.588Z,8.60
2019-02-19T18:50:02.206Z,8.30
2019-02-19T18:53:06.006Z,7.87
2019-02-19T18:56:08.741Z,7.80
2019-02-19T18:59:11.443Z,8.27
2019-02-19T19:02:14.248Z,7.23
2019-02-19T19:05:16.973Z,7.47
2019-02-19T19:08:19.870Z,7.50
2019-02-19T19:11:22.432Z,8.87
2019-02-19T19:14:25.195Z,7.20
2019-02-19T19:17:29.168Z,8.60
2019-02-19T19:20:31.789Z,7.60
2019-02-19T19:23:34.452Z,8.10
2019-02-19T19:26:37.035Z,7.83
2019-02-19T19:29:39.690Z,7.60
2019-02-19T19:32:42.427Z,6.60
2019-02-19T19:35:45.167Z,6.90
2019-02-19T19:38:47.751Z,6.83
2019-02-19T19:41:50.435Z,5.77
2019-02-19T19:44:53.091Z,6.90
2019-02-19T19:47:56.742Z,6.93
2019-02-19T19:51:01.147Z,7.03
2019-02-19T19:54:03.849Z,6.63
2019-02-19T19:57:06.456Z,6.47
2019-02-19T20:00:09.472Z,5.67
2019-02-19T20:03:12.197Z,6.03
2019-02-19T20:06:15.869Z,5.57
2019-02-19T20:09:18.567Z,6.77
2019-02-19T20:12:21.323Z,5.27
2019-02-19T20:15:23.945Z,5.57
2019-02-19T20:18:26.611Z,5.50
2019-02-19T20:21:29.338Z,5.40
2019-02-19T20:24:35.198Z,5.50
2019-02-19T20:27:37.943Z,5.13
2019-02-19T20:30:40.692Z,4.80
2019-02-19T20:33:43.404Z,5.70
2019-02-19T20:36:46.085Z,5.80
2019-02-19T20:39:48.749Z,4.77
2019-02-19T20:42:51.405Z,4.90
2019-02-19T20:45:54.072Z,4.80
2019-02-19T20:48:56.652Z,5.30
2019-02-19T20:51:59.236Z,4.83
2019-02-19T20:55:01.885Z,5.73
2019-02-19T20:58:05.978Z,5.20
2019-02-19T21:01:08.669Z,5.50
2019-02-19T21:04:11.377Z,5.03
2019-02-19T21:07:14.803Z,4.73
2019-02-19T21:10:17.581Z,4.73
2019-02-19T21:13:20.226Z,5.17
2019-02-19T21:16:22.926Z,5.67
2019-02-19T21:19:25.579Z,5.20
2019-02-19T21:22:28.344Z,4.60
2019-02-19T21:25:31.384Z,5.10
2019-02-19T21:28:34.113Z,4.60
2019-02-19T21:31:36.733Z,4.70
2019-02-19T21:34:39.546Z,5.20
2019-02-19T21:37:42.220Z,5.00
2019-02-19T21:40:44.925Z,4.53
2019-02-19T21:43:47.825Z,4.70
2019-02-19T21:46:50.496Z,5.47
2019-02-19T21:49:54.050Z,7.10
2019-02-19T21:52:56.716Z,5.20
2019-02-19T21:55:59.430Z,5.37
2019-02-19T21:59:02.020Z,5.00
2019-02-19T22:02:05.845Z,4.67
2019-02-19T22:05:08.443Z,4.97
2019-02-19T22:08:11.078Z,4.70
2019-02-19T22:11:13.644Z,4.80
2019-02-19T22:14:16.325Z,5.10
2019-02-19T22:17:18.910Z,5.37
2019-02-19T22:20:39.946Z,5.93
2019-02-19T22:23:42.614Z,4.70
2019-02-19T22:26:45.306Z,5.17
2019-02-19T22:29:47.865Z,4.63
2019-02-19T22:32:50.465Z,4.90
2019-02-19T22:35:53.013Z,5.63
2019-02-19T22:38:55.647Z,5.47
2019-02-19T22:41:58.319Z,4.90
2019-02-19T22:45:01.094Z,5.90
2019-02-19T22:48:04.406Z,5.87
2019-02-19T22:51:07.008Z,6.00
2019-02-19T22:54:20.334Z,6.40
2019-02-19T22:57:22.876Z,5.13
2019-02-19T23:00:45.254Z,5.63
2019-02-19T23:03:49.621Z,5.40
2019-02-19T23:06:52.336Z,5.83
2019-02-19T23:09:54.939Z,5.87
2019-02-19T23:12:58.669Z,4.97
2019-02-19T23:16:01.189Z,6.10
2019-02-19T23:19:04.986Z,5.63
2019-02-19T23:22:08.098Z,7.93
2019-02-19T23:25:10.681Z,6.17
2019-02-19T23:28:13.257Z,5.53
2019-02-19T23:31:15.819Z,5.47
2019-02-19T23:34:18.424Z,5.13
2019-02-19T23:37:23.079Z,4.77
2019-02-19T23:40:28.754Z,5.67
2019-02-19T23:43:31.394Z,5.67
2019-02-19T23:46:34.066Z,5.60
2019-02-19T23:49:36.743Z,5.30
2019-02-19T23:52:39.336Z,6.20
2019-02-19T23:55:42.025Z,5.80
2019-02-19T23:58:46.480Z,6.00
